sensor_id;sensor_type;location;lat;lon;timestamp;P1;durP1;ratioP1;P2;durP2;ratioP2
73456;SDS011;61691;53.072;6.582;2024-01-30T00:01:36;27.83;;;14.80;;
73456;SDS011;61691;53.072;6.582;2024-01-30T00:04:02;28.08;;;13.68;;
73456;SDS011;61691;53.072;6.582;2024-01-30T00:06:29;26.42;;;13.63;;
73456;SDS011;61691;53.072;6.582;2024-01-30T00:08:56;26.45;;;14.07;;
73456;SDS011;61691;53.072;6.582;2024-01-30T00:11:23;27.25;;;14.50;;
73456;SDS011;61691;53.072;6.582;2024-01-30T00:13:52;26.98;;;15.43;;
73456;SDS011;61691;53.072;6.582;2024-01-30T00:16:22;27.92;;;15.02;;
73456;SDS011;61691;53.072;6.582;2024-01-30T00:18:51;28.40;;;14.90;;
73456;SDS011;61691;53.072;6.582;2024-01-30T00:21:19;27.67;;;14.23;;
73456;SDS011;61691;53.072;6.582;2024-01-30T00:23:46;29.15;;;14.82;;
73456;SDS011;61691;53.072;6.582;2024-01-30T00:26:13;26.42;;;14.18;;
73456;SDS011;61691;53.072;6.582;2024-01-30T00:28:43;26.42;;;14.07;;
73456;SDS011;61691;53.072;6.582;2024-01-30T00:31:10;25.50;;;15.18;;
73456;SDS011;61691;53.072;6.582;2024-01-30T00:33:39;26.02;;;14.57;;
73456;SDS011;61691;53.072;6.582;2024-01-30T00:36:07;29.08;;;14.57;;
73456;SDS011;61691;53.072;6.582;2024-01-30T00:38:35;28.65;;;15.43;;
73456;SDS011;61691;53.072;6.582;2024-01-30T00:41:01;26.65;;;14.68;;
73456;SDS011;61691;53.072;6.582;2024-01-30T00:43:29;27.08;;;14.80;;
73456;SDS011;61691;53.072;6.582;2024-01-30T00:45:56;28.80;;;15.50;;
73456;SDS011;61691;53.072;6.582;2024-01-30T00:48:22;26.42;;;14.57;;
73456;SDS011;61691;53.072;6.582;2024-01-30T00:50:49;27.35;;;14.48;;
73456;SDS011;61691;53.072;6.582;2024-01-30T00:53:16;27.25;;;14.63;;
73456;SDS011;61691;53.072;6.582;2024-01-30T00:55:43;26.70;;;14.75;;
73456;SDS011;61691;53.072;6.582;2024-01-30T00:58:09;27.65;;;15.52;;
73456;SDS011;61691;53.072;6.582;2024-01-30T01:00:36;27.95;;;14.77;;
73456;SDS011;61691;53.072;6.582;2024-01-30T01:03:03;27.75;;;14.95;;
73456;SDS011;61691;53.072;6.582;2024-01-30T01:05:30;28.25;;;15.40;;
73456;SDS011;61691;53.072;6.582;2024-01-30T01:07:57;26.65;;;14.90;;
73456;SDS011;61691;53.072;6.582;2024-01-30T01:10:23;28.88;;;15.32;;
73456;SDS011;61691;53.072;6.582;2024-01-30T01:12:50;31.00;;;15.10;;
73456;SDS011;61691;53.072;6.582;2024-01-30T01:15:18;27.02;;;15.20;;
73456;SDS011;61691;53.072;6.582;2024-01-30T01:17:45;27.65;;;14.60;;
73456;SDS011;61691;53.072;6.582;2024-01-30T01:20:12;26.85;;;14.98;;
73456;SDS011;61691;53.072;6.582;2024-01-30T01:22:39;28.30;;;15.50;;
73456;SDS011;61691;53.072;6.582;2024-01-30T01:25:06;30.38;;;15.30;;
73456;SDS011;61691;53.072;6.582;2024-01-30T01:27:34;27.20;;;15.20;;
73456;SDS011;61691;53.072;6.582;2024-01-30T01:30:08;26.58;;;15.30;;
73456;SDS011;61691;53.072;6.582;2024-01-30T01:32:36;28.88;;;15.25;;
73456;SDS011;61691;53.072;6.582;2024-01-30T01:35:04;27.77;;;15.50;;
73456;SDS011;61691;53.072;6.582;2024-01-30T01:37:34;27.85;;;15.02;;
73456;SDS011;61691;53.072;6.582;2024-01-30T01:40:00;31.17;;;15.63;;
73456;SDS011;61691;53.072;6.582;2024-01-30T01:42:27;29.15;;;15.38;;
73456;SDS011;61691;53.072;6.582;2024-01-30T01:44:54;26.70;;;14.65;;
73456;SDS011;61691;53.072;6.582;2024-01-30T01:47:21;26.92;;;15.25;;
73456;SDS011;61691;53.072;6.582;2024-01-30T01:49:47;26.60;;;13.98;;
73456;SDS011;61691;53.072;6.582;2024-01-30T01:52:15;27.92;;;14.45;;
73456;SDS011;61691;53.072;6.582;2024-01-30T01:54:41;26.35;;;14.35;;
73456;SDS011;61691;53.072;6.582;2024-01-30T01:57:09;28.38;;;15.35;;
73456;SDS011;61691;53.072;6.582;2024-01-30T01:59:36;27.67;;;14.63;;
73456;SDS011;61691;53.072;6.582;2024-01-30T02:02:03;26.90;;;13.93;;
73456;SDS011;61691;53.072;6.582;2024-01-30T02:04:31;29.15;;;15.55;;
73456;SDS011;61691;53.072;6.582;2024-01-30T02:06:58;27.48;;;15.23;;
73456;SDS011;61691;53.072;6.582;2024-01-30T02:09:25;25.85;;;14.90;;
73456;SDS011;61691;53.072;6.582;2024-01-30T02:11:51;28.08;;;14.73;;
73456;SDS011;61691;53.072;6.582;2024-01-30T02:14:18;25.83;;;14.52;;
73456;SDS011;61691;53.072;6.582;2024-01-30T02:16:45;28.40;;;15.63;;
73456;SDS011;61691;53.072;6.582;2024-01-30T02:19:11;29.20;;;15.68;;
73456;SDS011;61691;53.072;6.582;2024-01-30T02:21:38;27.23;;;14.80;;
73456;SDS011;61691;53.072;6.582;2024-01-30T02:24:05;27.10;;;15.23;;
73456;SDS011;61691;53.072;6.582;2024-01-30T02:26:32;28.52;;;13.93;;
73456;SDS011;61691;53.072;6.582;2024-01-30T02:28:59;29.52;;;15.02;;
73456;SDS011;61691;53.072;6.582;2024-01-30T02:31:25;26.17;;;13.95;;
73456;SDS011;61691;53.072;6.582;2024-01-30T02:33:53;27.58;;;14.77;;
73456;SDS011;61691;53.072;6.582;2024-01-30T02:36:19;27.50;;;14.43;;
73456;SDS011;61691;53.072;6.582;2024-01-30T02:38:46;26.88;;;13.40;;
73456;SDS011;61691;53.072;6.582;2024-01-30T02:41:13;25.55;;;13.52;;
73456;SDS011;61691;53.072;6.582;2024-01-30T02:43:40;26.45;;;13.48;;
73456;SDS011;61691;53.072;6.582;2024-01-30T02:46:07;25.90;;;12.32;;
73456;SDS011;61691;53.072;6.582;2024-01-30T02:48:33;26.90;;;13.90;;
73456;SDS011;61691;53.072;6.582;2024-01-30T02:51:00;25.45;;;12.75;;
73456;SDS011;61691;53.072;6.582;2024-01-30T02:53:27;28.05;;;13.60;;
73456;SDS011;61691;53.072;6.582;2024-01-30T02:55:53;24.30;;;13.30;;
73456;SDS011;61691;53.072;6.582;2024-01-30T02:58:20;27.60;;;13.85;;
73456;SDS011;61691;53.072;6.582;2024-01-30T03:00:47;25.67;;;13.63;;
73456;SDS011;61691;53.072;6.582;2024-01-30T03:03:13;25.55;;;12.55;;
73456;SDS011;61691;53.072;6.582;2024-01-30T03:05:40;25.80;;;13.38;;
73456;SDS011;61691;53.072;6.582;2024-01-30T03:08:07;27.30;;;13.13;;
73456;SDS011;61691;53.072;6.582;2024-01-30T03:10:34;28.83;;;13.02;;
73456;SDS011;61691;53.072;6.582;2024-01-30T03:13:00;26.63;;;13.52;;
73456;SDS011;61691;53.072;6.582;2024-01-30T03:15:27;23.85;;;13.25;;
73456;SDS011;61691;53.072;6.582;2024-01-30T03:17:54;27.45;;;14.05;;
73456;SDS011;61691;53.072;6.582;2024-01-30T03:20:20;28.40;;;13.70;;
73456;SDS011;61691;53.072;6.582;2024-01-30T03:22:47;24.95;;;12.90;;
73456;SDS011;61691;53.072;6.582;2024-01-30T03:25:14;31.90;;;14.95;;
73456;SDS011;61691;53.072;6.582;2024-01-30T03:27:40;25.13;;;13.45;;
73456;SDS011;61691;53.072;6.582;2024-01-30T03:30:07;25.92;;;12.85;;
73456;SDS011;61691;53.072;6.582;2024-01-30T03:32:34;25.90;;;13.27;;
73456;SDS011;61691;53.072;6.582;2024-01-30T03:35:01;25.95;;;12.50;;
73456;SDS011;61691;53.072;6.582;2024-01-30T03:37:28;24.60;;;12.82;;
73456;SDS011;61691;53.072;6.582;2024-01-30T03:39:55;27.17;;;11.93;;
73456;SDS011;61691;53.072;6.582;2024-01-30T03:42:22;24.83;;;13.23;;
73456;SDS011;61691;53.072;6.582;2024-01-30T03:44:48;24.70;;;12.95;;
73456;SDS011;61691;53.072;6.582;2024-01-30T03:47:18;23.50;;;12.27;;
73456;SDS011;61691;53.072;6.582;2024-01-30T03:49:45;24.38;;;12.45;;
73456;SDS011;61691;53.072;6.582;2024-01-30T03:52:12;24.95;;;11.93;;
73456;SDS011;61691;53.072;6.582;2024-01-30T03:54:38;23.55;;;12.32;;
73456;SDS011;61691;53.072;6.582;2024-01-30T03:57:05;23.40;;;12.30;;
73456;SDS011;61691;53.072;6.582;2024-01-30T03:59:32;22.13;;;11.75;;
73456;SDS011;61691;53.072;6.582;2024-01-30T04:01:59;23.83;;;12.20;;
73456;SDS011;61691;53.072;6.582;2024-01-30T04:04:27;24.33;;;12.25;;
73456;SDS011;61691;53.072;6.582;2024-01-30T04:06:53;24.58;;;11.98;;
73456;SDS011;61691;53.072;6.582;2024-01-30T04:09:20;22.77;;;11.88;;
73456;SDS011;61691;53.072;6.582;2024-01-30T04:11:47;23.60;;;11.88;;
73456;SDS011;61691;53.072;6.582;2024-01-30T04:14:14;23.83;;;11.98;;
73456;SDS011;61691;53.072;6.582;2024-01-30T04:16:40;22.60;;;11.52;;
73456;SDS011;61691;53.072;6.582;2024-01-30T04:19:07;24.40;;;11.35;;
73456;SDS011;61691;53.072;6.582;2024-01-30T04:21:34;23.20;;;11.43;;
73456;SDS011;61691;53.072;6.582;2024-01-30T04:24:00;22.45;;;11.38;;
73456;SDS011;61691;53.072;6.582;2024-01-30T04:26:27;25.48;;;11.60;;
73456;SDS011;61691;53.072;6.582;2024-01-30T04:28:54;25.25;;;11.35;;
73456;SDS011;61691;53.072;6.582;2024-01-30T04:31:21;21.75;;;11.10;;
73456;SDS011;61691;53.072;6.582;2024-01-30T04:33:48;21.83;;;11.07;;
73456;SDS011;61691;53.072;6.582;2024-01-30T04:36:14;24.08;;;11.27;;
73456;SDS011;61691;53.072;6.582;2024-01-30T04:38:41;23.33;;;10.85;;
73456;SDS011;61691;53.072;6.582;2024-01-30T04:41:08;22.27;;;10.70;;
73456;SDS011;61691;53.072;6.582;2024-01-30T04:43:35;22.35;;;11.10;;
73456;SDS011;61691;53.072;6.582;2024-01-30T04:46:02;22.85;;;11.07;;
73456;SDS011;61691;53.072;6.582;2024-01-30T04:48:29;21.90;;;10.90;;
73456;SDS011;61691;53.072;6.582;2024-01-30T04:50:55;25.35;;;11.35;;
73456;SDS011;61691;53.072;6.582;2024-01-30T04:53:22;24.27;;;11.80;;
73456;SDS011;61691;53.072;6.582;2024-01-30T04:55:49;22.42;;;11.10;;
73456;SDS011;61691;53.072;6.582;2024-01-30T04:58:16;22.73;;;10.60;;
73456;SDS011;61691;53.072;6.582;2024-01-30T05:00:43;21.98;;;10.43;;
73456;SDS011;61691;53.072;6.582;2024-01-30T05:03:09;22.15;;;11.07;;
73456;SDS011;61691;53.072;6.582;2024-01-30T05:05:36;23.30;;;11.35;;
73456;SDS011;61691;53.072;6.582;2024-01-30T05:08:03;23.80;;;11.10;;
73456;SDS011;61691;53.072;6.582;2024-01-30T05:10:30;21.98;;;11.02;;
73456;SDS011;61691;53.072;6.582;2024-01-30T05:12:57;21.98;;;10.98;;
73456;SDS011;61691;53.072;6.582;2024-01-30T05:15:24;21.92;;;10.70;;
73456;SDS011;61691;53.072;6.582;2024-01-30T05:17:50;22.35;;;10.70;;
73456;SDS011;61691;53.072;6.582;2024-01-30T05:20:17;23.42;;;11.07;;
73456;SDS011;61691;53.072;6.582;2024-01-30T05:22:44;25.20;;;10.77;;
73456;SDS011;61691;53.072;6.582;2024-01-30T05:25:12;22.48;;;11.43;;
73456;SDS011;61691;53.072;6.582;2024-01-30T05:27:39;23.98;;;10.73;;
73456;SDS011;61691;53.072;6.582;2024-01-30T05:30:06;21.85;;;11.10;;
73456;SDS011;61691;53.072;6.582;2024-01-30T05:32:33;22.20;;;10.50;;
73456;SDS011;61691;53.072;6.582;2024-01-30T05:35:00;23.52;;;11.25;;
73456;SDS011;61691;53.072;6.582;2024-01-30T05:37:27;22.30;;;11.35;;
73456;SDS011;61691;53.072;6.582;2024-01-30T05:39:54;23.00;;;11.02;;
73456;SDS011;61691;53.072;6.582;2024-01-30T05:42:21;22.52;;;10.77;;
73456;SDS011;61691;53.072;6.582;2024-01-30T05:44:47;22.85;;;11.15;;
73456;SDS011;61691;53.072;6.582;2024-01-30T05:47:14;22.88;;;11.40;;
73456;SDS011;61691;53.072;6.582;2024-01-30T05:49:41;21.15;;;10.40;;
73456;SDS011;61691;53.072;6.582;2024-01-30T05:52:08;24.20;;;11.05;;
73456;SDS011;61691;53.072;6.582;2024-01-30T05:54:36;21.98;;;10.13;;
73456;SDS011;61691;53.072;6.582;2024-01-30T05:57:03;21.02;;;10.63;;
73456;SDS011;61691;53.072;6.582;2024-01-30T05:59:29;23.65;;;10.68;;
73456;SDS011;61691;53.072;6.582;2024-01-30T06:01:56;24.27;;;10.82;;
73456;SDS011;61691;53.072;6.582;2024-01-30T06:04:23;22.55;;;9.77;;
73456;SDS011;61691;53.072;6.582;2024-01-30T06:06:50;22.63;;;10.38;;
73456;SDS011;61691;53.072;6.582;2024-01-30T06:09:17;22.73;;;11.25;;
73456;SDS011;61691;53.072;6.582;2024-01-30T06:11:43;23.58;;;11.30;;
73456;SDS011;61691;53.072;6.582;2024-01-30T06:14:11;21.60;;;9.57;;
73456;SDS011;61691;53.072;6.582;2024-01-30T06:16:38;22.73;;;10.30;;
73456;SDS011;61691;53.072;6.582;2024-01-30T06:19:04;22.75;;;9.80;;
73456;SDS011;61691;53.072;6.582;2024-01-30T06:21:32;23.80;;;10.35;;
73456;SDS011;61691;53.072;6.582;2024-01-30T06:24:03;22.02;;;10.35;;
73456;SDS011;61691;53.072;6.582;2024-01-30T06:26:29;24.17;;;9.60;;
73456;SDS011;61691;53.072;6.582;2024-01-30T06:28:56;20.70;;;10.60;;
73456;SDS011;61691;53.072;6.582;2024-01-30T06:31:23;22.77;;;10.13;;
73456;SDS011;61691;53.072;6.582;2024-01-30T06:33:50;22.65;;;10.05;;
73456;SDS011;61691;53.072;6.582;2024-01-30T06:36:17;22.02;;;10.32;;
73456;SDS011;61691;53.072;6.582;2024-01-30T06:38:44;24.63;;;10.13;;
73456;SDS011;61691;53.072;6.582;2024-01-30T06:41:10;21.67;;;10.77;;
73456;SDS011;61691;53.072;6.582;2024-01-30T06:43:37;20.73;;;10.00;;
73456;SDS011;61691;53.072;6.582;2024-01-30T06:46:04;21.67;;;9.30;;
73456;SDS011;61691;53.072;6.582;2024-01-30T06:48:30;19.98;;;8.73;;
73456;SDS011;61691;53.072;6.582;2024-01-30T06:50:57;21.52;;;9.70;;
73456;SDS011;61691;53.072;6.582;2024-01-30T06:53:24;23.17;;;10.18;;
73456;SDS011;61691;53.072;6.582;2024-01-30T06:55:52;20.27;;;9.80;;
73456;SDS011;61691;53.072;6.582;2024-01-30T06:58:19;21.70;;;9.60;;
73456;SDS011;61691;53.072;6.582;2024-01-30T07:00:46;22.63;;;9.55;;
73456;SDS011;61691;53.072;6.582;2024-01-30T07:03:12;23.13;;;10.43;;
73456;SDS011;61691;53.072;6.582;2024-01-30T07:05:39;21.27;;;9.30;;
73456;SDS011;61691;53.072;6.582;2024-01-30T07:08:06;22.35;;;9.35;;
73456;SDS011;61691;53.072;6.582;2024-01-30T07:10:33;20.98;;;10.00;;
73456;SDS011;61691;53.072;6.582;2024-01-30T07:13:00;23.35;;;9.90;;
73456;SDS011;61691;53.072;6.582;2024-01-30T07:15:27;21.63;;;10.10;;
73456;SDS011;61691;53.072;6.582;2024-01-30T07:17:55;21.58;;;9.88;;
73456;SDS011;61691;53.072;6.582;2024-01-30T07:20:22;23.45;;;9.55;;
73456;SDS011;61691;53.072;6.582;2024-01-30T07:22:49;28.23;;;11.00;;
73456;SDS011;61691;53.072;6.582;2024-01-30T07:25:15;21.80;;;9.73;;
73456;SDS011;61691;53.072;6.582;2024-01-30T07:27:43;20.88;;;9.40;;
73456;SDS011;61691;53.072;6.582;2024-01-30T07:30:10;20.88;;;10.07;;
73456;SDS011;61691;53.072;6.582;2024-01-30T07:32:37;19.90;;;9.05;;
73456;SDS011;61691;53.072;6.582;2024-01-30T07:35:04;22.02;;;11.05;;
73456;SDS011;61691;53.072;6.582;2024-01-30T07:37:34;21.48;;;9.68;;
73456;SDS011;61691;53.072;6.582;2024-01-30T07:40:02;21.13;;;10.15;;
73456;SDS011;61691;53.072;6.582;2024-01-30T07:42:30;20.60;;;9.75;;
73456;SDS011;61691;53.072;6.582;2024-01-30T07:44:57;22.17;;;9.93;;
73456;SDS011;61691;53.072;6.582;2024-01-30T07:47:25;22.02;;;9.57;;
73456;SDS011;61691;53.072;6.582;2024-01-30T07:49:52;21.63;;;9.77;;
73456;SDS011;61691;53.072;6.582;2024-01-30T07:52:19;20.98;;;9.70;;
73456;SDS011;61691;53.072;6.582;2024-01-30T07:54:49;23.40;;;9.93;;
73456;SDS011;61691;53.072;6.582;2024-01-30T07:57:17;22.25;;;9.32;;
73456;SDS011;61691;53.072;6.582;2024-01-30T07:59:44;23.90;;;9.68;;
73456;SDS011;61691;53.072;6.582;2024-01-30T08:02:12;22.48;;;10.05;;
73456;SDS011;61691;53.072;6.582;2024-01-30T08:04:41;22.58;;;9.88;;
73456;SDS011;61691;53.072;6.582;2024-01-30T08:07:08;22.27;;;10.18;;
73456;SDS011;61691;53.072;6.582;2024-01-30T08:09:35;21.98;;;9.95;;
73456;SDS011;61691;53.072;6.582;2024-01-30T08:12:02;20.35;;;8.52;;
73456;SDS011;61691;53.072;6.582;2024-01-30T08:14:29;23.13;;;9.85;;
73456;SDS011;61691;53.072;6.582;2024-01-30T08:16:55;23.17;;;9.75;;
73456;SDS011;61691;53.072;6.582;2024-01-30T08:19:22;23.98;;;10.30;;
73456;SDS011;61691;53.072;6.582;2024-01-30T08:21:49;22.80;;;9.55;;
73456;SDS011;61691;53.072;6.582;2024-01-30T08:24:16;23.00;;;9.90;;
73456;SDS011;61691;53.072;6.582;2024-01-30T08:26:43;20.23;;;8.85;;
73456;SDS011;61691;53.072;6.582;2024-01-30T08:29:09;22.75;;;9.90;;
73456;SDS011;61691;53.072;6.582;2024-01-30T08:31:37;20.45;;;9.10;;
73456;SDS011;61691;53.072;6.582;2024-01-30T08:34:03;24.02;;;9.73;;
73456;SDS011;61691;53.072;6.582;2024-01-30T08:36:30;20.90;;;9.18;;
73456;SDS011;61691;53.072;6.582;2024-01-30T08:38:57;22.05;;;9.57;;
73456;SDS011;61691;53.072;6.582;2024-01-30T08:41:29;20.38;;;8.45;;
73456;SDS011;61691;53.072;6.582;2024-01-30T08:43:56;21.33;;;9.48;;
73456;SDS011;61691;53.072;6.582;2024-01-30T08:46:23;23.45;;;9.52;;
73456;SDS011;61691;53.072;6.582;2024-01-30T08:48:50;26.98;;;10.13;;
73456;SDS011;61691;53.072;6.582;2024-01-30T08:51:17;20.65;;;9.18;;
73456;SDS011;61691;53.072;6.582;2024-01-30T08:53:44;25.00;;;10.40;;
73456;SDS011;61691;53.072;6.582;2024-01-30T08:56:10;20.83;;;9.23;;
73456;SDS011;61691;53.072;6.582;2024-01-30T08:58:37;20.05;;;8.93;;
73456;SDS011;61691;53.072;6.582;2024-01-30T09:01:04;21.33;;;9.38;;
73456;SDS011;61691;53.072;6.582;2024-01-30T09:03:32;20.30;;;9.00;;
73456;SDS011;61691;53.072;6.582;2024-01-30T09:05:59;22.48;;;9.50;;
73456;SDS011;61691;53.072;6.582;2024-01-30T09:08:26;20.98;;;9.10;;
73456;SDS011;61691;53.072;6.582;2024-01-30T09:10:52;23.02;;;9.15;;
73456;SDS011;61691;53.072;6.582;2024-01-30T09:13:19;21.92;;;9.50;;
73456;SDS011;61691;53.072;6.582;2024-01-30T09:15:46;20.00;;;8.93;;
73456;SDS011;61691;53.072;6.582;2024-01-30T09:18:13;22.27;;;9.30;;
73456;SDS011;61691;53.072;6.582;2024-01-30T09:20:40;23.77;;;8.85;;
73456;SDS011;61691;53.072;6.582;2024-01-30T09:23:06;20.95;;;8.65;;
73456;SDS011;61691;53.072;6.582;2024-01-30T09:25:34;19.92;;;8.98;;
73456;SDS011;61691;53.072;6.582;2024-01-30T09:28:01;22.88;;;9.68;;
73456;SDS011;61691;53.072;6.582;2024-01-30T09:30:27;20.58;;;9.02;;
73456;SDS011;61691;53.072;6.582;2024-01-30T09:32:54;23.08;;;8.65;;
73456;SDS011;61691;53.072;6.582;2024-01-30T09:35:21;19.25;;;8.25;;
73456;SDS011;61691;53.072;6.582;2024-01-30T09:37:48;22.08;;;8.65;;
73456;SDS011;61691;53.072;6.582;2024-01-30T09:40:15;19.63;;;8.40;;
73456;SDS011;61691;53.072;6.582;2024-01-30T09:42:48;22.75;;;8.70;;
73456;SDS011;61691;53.072;6.582;2024-01-30T09:45:17;21.40;;;8.82;;
73456;SDS011;61691;53.072;6.582;2024-01-30T09:47:45;21.65;;;8.30;;
73456;SDS011;61691;53.072;6.582;2024-01-30T09:50:13;21.77;;;8.90;;
73456;SDS011;61691;53.072;6.582;2024-01-30T09:52:42;20.80;;;8.73;;
73456;SDS011;61691;53.072;6.582;2024-01-30T09:55:09;22.65;;;8.38;;
73456;SDS011;61691;53.072;6.582;2024-01-30T09:57:36;19.92;;;8.77;;
73456;SDS011;61691;53.072;6.582;2024-01-30T10:00:03;22.35;;;8.85;;
73456;SDS011;61691;53.072;6.582;2024-01-30T10:02:34;24.92;;;8.95;;
73456;SDS011;61691;53.072;6.582;2024-01-30T10:05:01;21.10;;;8.32;;
73456;SDS011;61691;53.072;6.582;2024-01-30T10:07:28;20.48;;;8.85;;
73456;SDS011;61691;53.072;6.582;2024-01-30T10:09:56;20.17;;;8.27;;
73456;SDS011;61691;53.072;6.582;2024-01-30T10:12:23;26.40;;;9.07;;
73456;SDS011;61691;53.072;6.582;2024-01-30T10:14:52;20.52;;;7.95;;
73456;SDS011;61691;53.072;6.582;2024-01-30T10:17:18;23.35;;;9.25;;
73456;SDS011;61691;53.072;6.582;2024-01-30T10:19:59;19.77;;;8.35;;
73456;SDS011;61691;53.072;6.582;2024-01-30T10:22:26;21.80;;;8.55;;
73456;SDS011;61691;53.072;6.582;2024-01-30T10:24:53;21.00;;;8.15;;
73456;SDS011;61691;53.072;6.582;2024-01-30T10:27:39;21.90;;;9.02;;
73456;SDS011;61691;53.072;6.582;2024-01-30T10:30:07;24.55;;;8.68;;
73456;SDS011;61691;53.072;6.582;2024-01-30T10:32:34;22.00;;;8.60;;
73456;SDS011;61691;53.072;6.582;2024-01-30T10:35:01;23.55;;;8.75;;
73456;SDS011;61691;53.072;6.582;2024-01-30T10:37:28;20.58;;;8.65;;
73456;SDS011;61691;53.072;6.582;2024-01-30T10:39:59;23.38;;;9.50;;
73456;SDS011;61691;53.072;6.582;2024-01-30T10:42:32;22.60;;;9.18;;
73456;SDS011;61691;53.072;6.582;2024-01-30T10:47:39;22.02;;;8.68;;
73456;SDS011;61691;53.072;6.582;2024-01-30T10:50:08;25.35;;;9.23;;
73456;SDS011;61691;53.072;6.582;2024-01-30T10:52:37;19.97;;;9.07;;
73456;SDS011;61691;53.072;6.582;2024-01-30T10:55:04;22.42;;;9.65;;
73456;SDS011;61691;53.072;6.582;2024-01-30T10:57:34;23.27;;;9.80;;
73456;SDS011;61691;53.072;6.582;2024-01-30T11:00:14;23.52;;;9.38;;
73456;SDS011;61691;53.072;6.582;2024-01-30T11:02:45;21.73;;;8.52;;
73456;SDS011;61691;53.072;6.582;2024-01-30T11:05:13;22.08;;;9.70;;
73456;SDS011;61691;53.072;6.582;2024-01-30T11:07:42;20.63;;;8.18;;
73456;SDS011;61691;53.072;6.582;2024-01-30T11:10:09;23.15;;;9.23;;
73456;SDS011;61691;53.072;6.582;2024-01-30T11:12:41;22.70;;;8.70;;
73456;SDS011;61691;53.072;6.582;2024-01-30T11:15:13;22.90;;;8.80;;
73456;SDS011;61691;53.072;6.582;2024-01-30T11:20:20;23.80;;;8.93;;
73456;SDS011;61691;53.072;6.582;2024-01-30T11:22:48;23.20;;;9.35;;
73456;SDS011;61691;53.072;6.582;2024-01-30T11:25:17;22.13;;;10.18;;
73456;SDS011;61691;53.072;6.582;2024-01-30T11:27:46;22.63;;;9.63;;
73456;SDS011;61691;53.072;6.582;2024-01-30T11:35:27;23.83;;;10.55;;
73456;SDS011;61691;53.072;6.582;2024-01-30T11:37:55;24.77;;;11.10;;
73456;SDS011;61691;53.072;6.582;2024-01-30T11:40:23;25.67;;;11.30;;
73456;SDS011;61691;53.072;6.582;2024-01-30T11:42:54;24.10;;;9.98;;
73456;SDS011;61691;53.072;6.582;2024-01-30T11:45:22;21.38;;;9.15;;
73456;SDS011;61691;53.072;6.582;2024-01-30T11:47:48;24.13;;;10.35;;
73456;SDS011;61691;53.072;6.582;2024-01-30T11:50:16;24.13;;;8.57;;
73456;SDS011;61691;53.072;6.582;2024-01-30T11:52:43;24.40;;;8.00;;
73456;SDS011;61691;53.072;6.582;2024-01-30T11:55:09;24.98;;;7.32;;
73456;SDS011;61691;53.072;6.582;2024-01-30T11:57:36;22.40;;;7.18;;
73456;SDS011;61691;53.072;6.582;2024-01-30T12:00:03;25.58;;;6.47;;
73456;SDS011;61691;53.072;6.582;2024-01-30T12:02:36;20.23;;;5.53;;
73456;SDS011;61691;53.072;6.582;2024-01-30T12:05:07;19.58;;;5.05;;
73456;SDS011;61691;53.072;6.582;2024-01-30T12:07:34;22.05;;;5.05;;
73456;SDS011;61691;53.072;6.582;2024-01-30T12:10:01;23.45;;;4.95;;
73456;SDS011;61691;53.072;6.582;2024-01-30T12:12:28;19.05;;;4.38;;
73456;SDS011;61691;53.072;6.582;2024-01-30T12:14:56;21.60;;;4.30;;
73456;SDS011;61691;53.072;6.582;2024-01-30T12:17:29;18.65;;;4.60;;
73456;SDS011;61691;53.072;6.582;2024-01-30T12:22:37;18.42;;;3.95;;
73456;SDS011;61691;53.072;6.582;2024-01-30T12:25:07;20.17;;;4.30;;
73456;SDS011;61691;53.072;6.582;2024-01-30T12:27:41;20.02;;;4.07;;
73456;SDS011;61691;53.072;6.582;2024-01-30T12:30:13;20.07;;;4.30;;
73456;SDS011;61691;53.072;6.582;2024-01-30T12:32:41;17.75;;;3.95;;
73456;SDS011;61691;53.072;6.582;2024-01-30T12:35:10;15.23;;;3.53;;
73456;SDS011;61691;53.072;6.582;2024-01-30T12:37:44;15.63;;;3.13;;
73456;SDS011;61691;53.072;6.582;2024-01-30T12:40:13;16.52;;;3.55;;
73456;SDS011;61691;53.072;6.582;2024-01-30T12:42:41;12.65;;;2.67;;
73456;SDS011;61691;53.072;6.582;2024-01-30T12:45:09;13.52;;;2.40;;
73456;SDS011;61691;53.072;6.582;2024-01-30T12:47:36;9.38;;;1.83;;
73456;SDS011;61691;53.072;6.582;2024-01-30T12:50:03;8.82;;;1.75;;
73456;SDS011;61691;53.072;6.582;2024-01-30T12:52:31;7.40;;;1.70;;
73456;SDS011;61691;53.072;6.582;2024-01-30T12:54:58;8.10;;;1.73;;
73456;SDS011;61691;53.072;6.582;2024-01-30T12:57:24;10.60;;;1.77;;
73456;SDS011;61691;53.072;6.582;2024-01-30T12:59:51;8.00;;;1.70;;
73456;SDS011;61691;53.072;6.582;2024-01-30T13:02:18;10.18;;;1.90;;
73456;SDS011;61691;53.072;6.582;2024-01-30T13:04:45;11.77;;;1.88;;
73456;SDS011;61691;53.072;6.582;2024-01-30T13:07:16;11.90;;;2.00;;
73456;SDS011;61691;53.072;6.582;2024-01-30T13:09:42;11.43;;;2.30;;
73456;SDS011;61691;53.072;6.582;2024-01-30T13:12:10;9.27;;;1.80;;
73456;SDS011;61691;53.072;6.582;2024-01-30T13:14:36;13.25;;;2.40;;
73456;SDS011;61691;53.072;6.582;2024-01-30T13:17:03;9.40;;;1.92;;
73456;SDS011;61691;53.072;6.582;2024-01-30T13:19:30;9.40;;;1.85;;
73456;SDS011;61691;53.072;6.582;2024-01-30T13:21:57;6.53;;;1.60;;
73456;SDS011;61691;53.072;6.582;2024-01-30T13:24:24;7.65;;;1.70;;
73456;SDS011;61691;53.072;6.582;2024-01-30T13:26:50;6.70;;;1.58;;
73456;SDS011;61691;53.072;6.582;2024-01-30T13:29:18;7.63;;;1.40;;
73456;SDS011;61691;53.072;6.582;2024-01-30T13:31:45;9.48;;;1.85;;
73456;SDS011;61691;53.072;6.582;2024-01-30T13:34:13;6.22;;;1.50;;
73456;SDS011;61691;53.072;6.582;2024-01-30T13:36:40;6.82;;;1.92;;
73456;SDS011;61691;53.072;6.582;2024-01-30T13:39:08;5.57;;;1.20;;
73456;SDS011;61691;53.072;6.582;2024-01-30T13:41:37;5.55;;;1.30;;
73456;SDS011;61691;53.072;6.582;2024-01-30T13:44:04;4.57;;;1.20;;
73456;SDS011;61691;53.072;6.582;2024-01-30T13:46:31;7.07;;;1.27;;
73456;SDS011;61691;53.072;6.582;2024-01-30T13:48:58;4.47;;;1.30;;
73456;SDS011;61691;53.072;6.582;2024-01-30T13:51:26;3.53;;;0.90;;
73456;SDS011;61691;53.072;6.582;2024-01-30T13:53:54;5.43;;;1.30;;
73456;SDS011;61691;53.072;6.582;2024-01-30T13:56:20;5.10;;;1.33;;
73456;SDS011;61691;53.072;6.582;2024-01-30T13:58:48;3.03;;;1.15;;
73456;SDS011;61691;53.072;6.582;2024-01-30T14:01:16;6.75;;;1.30;;
73456;SDS011;61691;53.072;6.582;2024-01-30T14:03:43;7.68;;;1.50;;
73456;SDS011;61691;53.072;6.582;2024-01-30T14:06:11;5.40;;;1.30;;
73456;SDS011;61691;53.072;6.582;2024-01-30T14:08:38;6.10;;;1.50;;
73456;SDS011;61691;53.072;6.582;2024-01-30T14:11:08;6.10;;;1.67;;
73456;SDS011;61691;53.072;6.582;2024-01-30T14:13:36;7.63;;;1.95;;
73456;SDS011;61691;53.072;6.582;2024-01-30T14:16:03;8.65;;;1.65;;
73456;SDS011;61691;53.072;6.582;2024-01-30T14:18:32;7.82;;;1.65;;
73456;SDS011;61691;53.072;6.582;2024-01-30T14:20:58;10.40;;;1.90;;
73456;SDS011;61691;53.072;6.582;2024-01-30T14:23:25;6.22;;;1.67;;
73456;SDS011;61691;53.072;6.582;2024-01-30T14:25:52;8.95;;;1.75;;
73456;SDS011;61691;53.072;6.582;2024-01-30T14:28:19;8.65;;;1.52;;
73456;SDS011;61691;53.072;6.582;2024-01-30T14:30:46;10.73;;;1.77;;
73456;SDS011;61691;53.072;6.582;2024-01-30T14:33:13;7.95;;;1.55;;
73456;SDS011;61691;53.072;6.582;2024-01-30T14:35:41;7.22;;;1.70;;
73456;SDS011;61691;53.072;6.582;2024-01-30T14:38:07;8.40;;;2.05;;
73456;SDS011;61691;53.072;6.582;2024-01-30T14:40:34;8.23;;;1.80;;
73456;SDS011;61691;53.072;6.582;2024-01-30T14:43:01;9.02;;;2.10;;